createdAt,value
2019-05-02T00:00:36.547Z,0.00
2019-05-02T00:01:36.397Z,0.00
2019-05-02T00:03:29.218Z,0.00
2019-05-02T00:04:29.117Z,0.00
2019-05-02T00:06:21.967Z,0.00
2019-05-02T00:07:21.880Z,0.00
2019-05-02T00:09:14.589Z,0.00
2019-05-02T00:10:14.524Z,0.00
2019-05-02T00:12:07.340Z,0.00
2019-05-02T00:13:07.319Z,0.00
2019-05-02T00:15:02.105Z,0.00
2019-05-02T00:15:59.981Z,0.00
2019-05-02T00:17:56.782Z,0.00
2019-05-02T00:18:52.657Z,0.00
2019-05-02T00:20:45.532Z,0.00
2019-05-02T00:21:45.393Z,0.00
2019-05-02T00:23:38.243Z,0.00
2019-05-02T00:24:39.252Z,0.00
2019-05-02T00:26:31.011Z,0.00
2019-05-02T00:27:32.842Z,0.00
2019-05-02T00:29:24.944Z,0.00
2019-05-02T00:30:23.581Z,0.00
2019-05-02T00:32:18.405Z,0.00
2019-05-02T00:33:16.338Z,0.00
2019-05-02T00:35:09.129Z,0.00
2019-05-02T00:36:09.066Z,0.00
2019-05-02T00:38:02.399Z,0.00
2019-05-02T00:39:01.772Z,0.00
2019-05-02T00:40:57.392Z,0.00
2019-05-02T00:41:54.520Z,0.00
2019-05-02T00:43:47.227Z,0.00
2019-05-02T00:44:48.277Z,0.00
2019-05-02T00:46:39.996Z,0.00
2019-05-02T00:47:42.214Z,0.00
2019-05-02T00:49:35.425Z,0.00
2019-05-02T00:50:32.582Z,0.00
2019-05-02T00:52:25.344Z,0.00
2019-05-02T00:53:25.268Z,0.00
2019-05-02T00:55:18.106Z,0.00
2019-05-02T00:56:18.008Z,0.00
2019-05-02T00:58:10.831Z,0.00
2019-05-02T00:59:10.750Z,0.00
2019-05-02T01:01:03.554Z,0.00
2019-05-02T01:02:05.472Z,0.00
2019-05-02T01:03:56.332Z,0.00
2019-05-02T01:04:59.343Z,0.00
2019-05-02T01:06:50.694Z,0.00
2019-05-02T01:07:48.905Z,0.00
2019-05-02T01:09:42.218Z,0.00
2019-05-02T01:10:41.714Z,0.00
2019-05-02T01:12:34.505Z,0.00
2019-05-02T01:13:34.407Z,0.00
2019-05-02T01:15:27.202Z,0.00
2019-05-02T01:16:27.124Z,0.00
2019-05-02T01:18:19.958Z,0.00
2019-05-02T01:19:19.850Z,0.00
2019-05-02T01:21:12.649Z,0.00
2019-05-02T01:22:15.946Z,0.00
2019-05-02T01:24:05.377Z,0.00
2019-05-02T01:25:05.365Z,0.00
2019-05-02T01:26:59.910Z,0.00
2019-05-02T01:27:58.050Z,0.00
2019-05-02T01:29:50.832Z,0.00
2019-05-02T01:30:50.772Z,0.00
2019-05-02T01:32:43.774Z,0.00
2019-05-02T01:33:43.616Z,0.00
2019-05-02T01:35:36.251Z,0.00
2019-05-02T01:36:36.777Z,0.00
2019-05-02T01:38:31.866Z,0.00
2019-05-02T01:39:28.897Z,0.00
2019-05-02T01:41:24.022Z,0.00
2019-05-02T01:42:21.601Z,0.00
2019-05-02T01:44:14.446Z,0.00
2019-05-02T01:45:14.346Z,0.00
2019-05-02T01:47:07.142Z,0.00
2019-05-02T01:48:09.741Z,0.00
2019-05-02T01:49:59.925Z,0.00
2019-05-02T01:51:04.589Z,0.00
2019-05-02T01:52:53.706Z,0.00
2019-05-02T01:53:52.600Z,0.00
2019-05-02T01:55:57.768Z,0.00
2019-05-02T01:56:55.309Z,0.00
2019-05-02T01:58:48.028Z,0.00
2019-05-02T01:59:47.932Z,0.00
2019-05-02T02:01:40.742Z,0.00
2019-05-02T02:02:40.670Z,0.00
2019-05-02T02:04:33.497Z,0.00
2019-05-02T02:05:33.471Z,0.00
2019-05-02T02:07:26.208Z,0.00
2019-05-02T02:08:27.456Z,0.00
2019-05-02T02:10:19.838Z,0.00
2019-05-02T02:11:19.090Z,0.00
2019-05-02T02:13:11.662Z,0.00
2019-05-02T02:14:13.440Z,0.00
2019-05-02T02:16:05.769Z,0.00
2019-05-02T02:17:04.288Z,0.00
2019-05-02T02:18:58.988Z,0.00
2019-05-02T02:19:57.076Z,0.00
2019-05-02T02:21:49.902Z,0.00
2019-05-02T02:22:49.771Z,0.00
2019-05-02T02:24:42.567Z,0.00
2019-05-02T02:25:42.476Z,0.00
2019-05-02T02:27:35.247Z,0.00
2019-05-02T02:28:35.167Z,0.00
2019-05-02T02:30:27.996Z,0.00
2019-05-02T02:31:27.876Z,0.00
2019-05-02T02:33:20.719Z,0.00
2019-05-02T02:34:29.231Z,0.00
2019-05-02T02:36:13.411Z,0.00
2019-05-02T02:37:15.141Z,0.00
2019-05-02T02:39:07.055Z,0.00
2019-05-02T02:40:06.053Z,0.00
2019-05-02T02:41:58.888Z,0.00
2019-05-02T02:43:12.688Z,0.00
2019-05-02T02:44:51.582Z,0.00
2019-05-02T02:45:57.246Z,0.00
2019-05-02T02:47:44.345Z,0.00
2019-05-02T02:48:44.196Z,0.00
2019-05-02T02:50:43.265Z,0.00
2019-05-02T02:51:36.914Z,0.00
2019-05-02T02:53:29.704Z,0.00
2019-05-02T02:54:29.607Z,0.00
2019-05-02T02:56:22.394Z,0.00
2019-05-02T02:57:27.989Z,0.00
2019-05-02T02:59:19.544Z,0.00
2019-05-02T03:00:14.999Z,0.00
2019-05-02T03:02:09.871Z,0.00
2019-05-02T03:03:07.713Z,0.00
2019-05-02T03:05:00.574Z,0.00
2019-05-02T03:06:05.857Z,0.00
2019-05-02T03:07:53.286Z,0.00
2019-05-02T03:08:53.223Z,0.00
2019-05-02T03:10:46.647Z,0.00
2019-05-02T03:11:45.983Z,0.00
2019-05-02T03:13:51.484Z,4.00
2019-05-02T03:14:41.149Z,4.00
2019-05-02T03:16:31.600Z,4.00
2019-05-02T03:17:31.376Z,4.00
2019-05-02T03:19:24.892Z,4.00
2019-05-02T03:20:24.613Z,4.00
2019-05-02T03:22:17.369Z,8.00
2019-05-02T03:23:22.298Z,8.00
2019-05-02T03:25:10.110Z,12.00
2019-05-02T03:26:15.181Z,8.00
2019-05-02T03:28:02.892Z,12.00
2019-05-02T03:29:02.816Z,12.00
2019-05-02T03:30:55.830Z,16.00
2019-05-02T03:32:11.762Z,16.00
2019-05-02T03:33:56.275Z,20.00
2019-05-02T03:34:53.331Z,24.00
2019-05-02T03:36:41.963Z,24.00
2019-05-02T03:37:44.947Z,28.00
2019-05-02T03:39:34.616Z,28.00
2019-05-02T03:40:39.258Z,28.00
2019-05-02T03:42:27.389Z,36.00
2019-05-02T03:43:27.805Z,44.00
2019-05-02T03:45:20.278Z,48.00
2019-05-02T03:46:22.519Z,48.00
2019-05-02T03:48:18.188Z,64.00
2019-05-02T03:49:13.065Z,60.00
2019-05-02T03:51:19.952Z,76.00
2019-05-02T03:52:06.133Z,80.00
2019-05-02T03:54:07.641Z,76.00
2019-05-02T03:54:58.603Z,88.00
2019-05-02T03:56:51.659Z,100.00
2019-05-02T03:57:51.233Z,100.00
2019-05-02T03:59:44.941Z,112.00
2019-05-02T04:00:44.861Z,108.00
2019-05-02T04:02:37.717Z,112.00
2019-05-02T04:03:40.803Z,108.00
2019-05-02T04:05:33.892Z,148.00
2019-05-02T04:06:30.323Z,172.00
2019-05-02T04:08:23.298Z,152.00
2019-05-02T04:09:23.065Z,144.00
2019-05-02T04:11:15.956Z,168.00
2019-05-02T04:12:21.533Z,156.00
2019-05-02T04:14:15.711Z,184.00
2019-05-02T04:15:09.669Z,200.00
2019-05-02T04:17:01.412Z,192.00
2019-05-02T04:18:01.322Z,204.00
2019-05-02T04:19:54.130Z,244.00
2019-05-02T04:20:54.181Z,276.00
2019-05-02T04:22:48.965Z,312.00
2019-05-02T04:23:46.755Z,336.00
2019-05-02T04:25:39.610Z,328.00
2019-05-02T04:26:39.473Z,328.00
2019-05-02T04:28:32.281Z,356.00
2019-05-02T04:29:33.143Z,340.00
2019-05-02T04:31:31.645Z,340.00
2019-05-02T04:32:24.963Z,344.00
2019-05-02T04:34:18.339Z,360.00
2019-05-02T04:35:18.124Z,380.00
2019-05-02T04:37:10.865Z,384.00
2019-05-02T04:38:20.269Z,396.00
2019-05-02T04:40:07.905Z,416.00
2019-05-02T04:41:03.781Z,416.00
2019-05-02T04:43:04.880Z,428.00
2019-05-02T04:44:01.173Z,460.00
2019-05-02T04:45:56.209Z,504.00
2019-05-02T04:46:49.110Z,456.00
2019-05-02T04:48:48.286Z,484.00
2019-05-02T04:49:41.803Z,528.00
2019-05-02T04:51:34.739Z,508.00
2019-05-02T04:52:40.775Z,460.00
2019-05-02T04:54:31.498Z,444.00
2019-05-02T04:55:32.306Z,568.00
2019-05-02T04:57:20.248Z,508.00
2019-05-02T04:58:27.731Z,488.00
2019-05-02T05:00:13.127Z,512.00
2019-05-02T05:01:12.912Z,500.00
2019-05-02T05:03:07.198Z,604.00
2019-05-02T05:04:08.148Z,616.00
2019-05-02T05:06:06.829Z,600.00
2019-05-02T05:07:01.171Z,580.00
2019-05-02T05:08:51.396Z,596.00
2019-05-02T05:09:58.254Z,644.00
2019-05-02T05:11:44.421Z,600.00
2019-05-02T05:12:44.324Z,592.00
2019-05-02T05:14:39.106Z,632.00
2019-05-02T05:15:44.810Z,644.00
2019-05-02T05:17:32.877Z,648.00
2019-05-02T05:18:29.991Z,644.00
2019-05-02T05:20:22.821Z,680.00
2019-05-02T05:21:24.715Z,656.00
2019-05-02T05:23:18.252Z,648.00
2019-05-02T05:24:15.498Z,640.00
2019-05-02T05:26:08.280Z,628.00
2019-05-02T05:27:08.383Z,648.00
2019-05-02T05:29:01.087Z,624.00
2019-05-02T05:30:08.459Z,620.00
2019-05-02T05:31:55.211Z,660.00
2019-05-02T05:32:53.751Z,712.00
2019-05-02T05:34:47.803Z,796.00
2019-05-02T05:35:48.854Z,896.00
2019-05-02T05:37:43.361Z,1188.00
2019-05-02T05:38:40.688Z,1232.00
2019-05-02T05:40:32.366Z,1260.00
2019-05-02T05:41:32.048Z,1304.00
2019-05-02T05:43:24.814Z,1204.00
2019-05-02T05:44:30.602Z,1192.00
2019-05-02T05:46:17.981Z,1212.00
2019-05-02T05:47:21.144Z,1232.00
2019-05-02T05:49:17.872Z,1168.00
2019-05-02T05:50:10.175Z,1144.00
2019-05-02T05:52:04.074Z,1156.00
2019-05-02T05:53:02.954Z,1136.00
2019-05-02T05:54:57.937Z,1136.00
2019-05-02T05:55:59.045Z,1200.00
2019-05-02T05:57:59.551Z,1120.00
2019-05-02T05:58:52.570Z,1184.00
2019-05-02T06:00:46.014Z,1320.00
2019-05-02T06:01:42.920Z,1412.00
2019-05-02T06:03:41.867Z,1292.00
2019-05-02T06:04:35.663Z,1320.00
2019-05-02T06:06:28.494Z,1480.00
2019-05-02T06:07:28.436Z,1380.00
2019-05-02T06:09:21.297Z,1348.00
2019-05-02T06:10:21.119Z,1180.00
2019-05-02T06:12:14.852Z,1188.00
2019-05-02T06:13:14.763Z,1304.00
2019-05-02T06:15:07.688Z,1340.00
2019-05-02T06:16:10.584Z,1296.00
2019-05-02T06:18:04.840Z,1316.00
2019-05-02T06:19:00.318Z,1336.00
2019-05-02T06:20:53.115Z,1628.00
2019-05-02T06:21:53.052Z,1640.00
2019-05-02T06:23:45.966Z,1696.00
2019-05-02T06:24:46.235Z,1636.00
2019-05-02T06:26:38.686Z,1704.00
2019-05-02T06:27:38.603Z,1712.00
2019-05-02T06:29:31.710Z,1736.00
2019-05-02T06:30:32.376Z,1724.00
2019-05-02T06:32:24.514Z,1692.00
2019-05-02T06:33:25.884Z,1680.00
2019-05-02T06:35:21.093Z,1724.00
2019-05-02T06:36:17.205Z,1688.00
2019-05-02T06:38:10.431Z,1700.00
2019-05-02T06:39:10.356Z,1688.00
2019-05-02T06:41:03.241Z,1692.00
2019-05-02T06:42:03.146Z,1728.00
2019-05-02T06:43:55.935Z,1772.00
2019-05-02T06:44:59.842Z,1704.00
2019-05-02T06:46:48.688Z,1632.00
2019-05-02T06:47:48.599Z,1708.00
2019-05-02T06:49:41.355Z,1800.00
2019-05-02T06:50:41.377Z,1676.00
2019-05-02T06:52:34.668Z,1512.00
2019-05-02T06:53:35.159Z,1440.00
2019-05-02T06:55:28.147Z,1512.00
2019-05-02T06:56:26.909Z,1504.00
2019-05-02T06:58:19.782Z,1660.00
2019-05-02T06:59:20.315Z,1532.00
2019-05-02T07:01:16.249Z,1500.00
2019-05-02T07:02:12.363Z,1560.00
2019-05-02T07:04:05.263Z,1492.00
2019-05-02T07:05:05.193Z,1500.00
2019-05-02T07:06:59.620Z,1412.00
2019-05-02T07:07:57.961Z,1424.00
2019-05-02T07:09:51.174Z,1472.00
2019-05-02T07:10:50.706Z,1428.00
2019-05-02T07:12:46.152Z,1404.00
2019-05-02T07:13:43.863Z,1396.00
2019-05-02T07:15:38.509Z,1424.00
2019-05-02T07:16:38.884Z,1404.00
2019-05-02T07:18:54.940Z,1360.00
2019-05-02T07:19:58.826Z,1296.00
2019-05-02T07:21:47.950Z,1576.00
2019-05-02T07:22:47.466Z,1604.00
2019-05-02T07:24:40.407Z,1564.00
2019-05-02T07:25:43.878Z,1488.00
2019-05-02T07:27:33.630Z,1444.00
2019-05-02T07:28:32.894Z,1492.00
2019-05-02T07:30:29.979Z,1552.00
2019-05-02T07:31:25.605Z,1556.00
2019-05-02T07:33:18.402Z,1456.00
2019-05-02T07:34:18.302Z,1564.00
2019-05-02T07:36:11.128Z,1396.00
2019-05-02T07:37:12.537Z,1432.00
2019-05-02T07:39:06.120Z,1332.00
2019-05-02T07:40:03.754Z,1380.00
2019-05-02T07:42:00.520Z,1540.00
2019-05-02T07:42:56.479Z,1552.00
2019-05-02T07:44:49.271Z,1556.00
2019-05-02T07:45:49.208Z,1496.00
2019-05-02T07:47:42.498Z,1532.00
2019-05-02T07:48:43.623Z,1524.00
2019-05-02T07:50:34.787Z,1464.00
2019-05-02T07:51:34.696Z,1772.00
2019-05-02T07:53:27.519Z,1576.00
2019-05-02T07:54:27.452Z,1444.00
2019-05-02T07:56:20.244Z,1556.00
2019-05-02T07:57:20.160Z,1680.00
2019-05-02T07:59:12.996Z,1788.00
2019-05-02T08:00:12.935Z,1776.00
2019-05-02T08:02:05.741Z,2000.00
2019-05-02T08:03:05.670Z,1948.00
2019-05-02T08:04:58.442Z,2340.00
2019-05-02T08:05:59.804Z,2096.00
2019-05-02T08:07:53.348Z,2468.00
2019-05-02T08:08:51.232Z,2228.00
2019-05-02T08:10:43.864Z,2100.00
2019-05-02T08:11:43.976Z,2220.00
2019-05-02T08:13:36.571Z,2188.00
2019-05-02T08:14:36.484Z,2068.00
2019-05-02T08:16:29.241Z,1904.00
2019-05-02T08:17:29.171Z,2180.00
2019-05-02T08:19:23.573Z,2064.00
2019-05-02T08:20:21.852Z,2260.00
2019-05-02T08:22:14.971Z,2088.00
2019-05-02T08:23:14.644Z,2112.00
2019-05-02T08:25:10.345Z,1868.00
2019-05-02T08:26:07.293Z,1904.00
2019-05-02T08:28:00.105Z,2380.00
2019-05-02T08:29:00.186Z,2252.00
2019-05-02T08:30:52.822Z,1924.00
2019-05-02T08:31:52.758Z,1988.00
2019-05-02T08:33:45.938Z,2036.00
2019-05-02T08:34:46.243Z,2104.00
2019-05-02T08:36:38.395Z,2220.00
2019-05-02T08:37:40.941Z,2028.00
2019-05-02T08:39:33.785Z,2060.00
2019-05-02T08:40:31.398Z,2004.00
2019-05-02T08:42:27.794Z,2376.00
2019-05-02T08:43:23.975Z,2384.00
2019-05-02T08:45:16.841Z,2140.00
2019-05-02T08:46:16.847Z,1908.00
2019-05-02T08:48:09.503Z,2248.00
2019-05-02T08:49:09.437Z,2456.00
2019-05-02T08:51:02.343Z,2148.00
2019-05-02T08:52:02.287Z,1976.00
2019-05-02T08:53:56.849Z,2464.00
2019-05-02T08:54:55.138Z,2472.00
2019-05-02T08:56:47.924Z,2192.00
2019-05-02T08:57:47.825Z,2152.00
2019-05-02T08:59:40.938Z,2016.00
2019-05-02T09:00:40.521Z,1912.00
2019-05-02T09:02:41.167Z,2028.00
2019-05-02T09:03:38.932Z,1996.00
2019-05-02T09:05:26.147Z,2156.00
2019-05-02T09:06:26.009Z,2312.00
2019-05-02T09:08:18.853Z,2272.00
2019-05-02T09:09:22.812Z,2580.00
2019-05-02T09:11:14.215Z,2272.00
2019-05-02T09:12:13.234Z,2220.00
2019-05-02T09:14:04.315Z,2504.00
2019-05-02T09:15:04.148Z,2604.00
2019-05-02T09:17:00.309Z,2468.00
2019-05-02T09:17:56.955Z,2480.00
2019-05-02T09:20:00.443Z,2524.00
2019-05-02T09:20:52.630Z,2356.00
2019-05-02T09:22:46.720Z,2412.00
2019-05-02T09:23:43.979Z,2472.00
2019-05-02T09:25:35.382Z,2620.00
2019-05-02T09:26:38.668Z,2696.00
2019-05-02T09:28:27.981Z,2772.00
2019-05-02T09:29:27.960Z,2664.00
2019-05-02T09:31:22.530Z,2696.00
2019-05-02T09:32:23.994Z,2628.00
2019-05-02T09:34:17.085Z,2460.00
2019-05-02T09:35:13.348Z,2528.00
2019-05-02T09:37:06.137Z,2868.00
2019-05-02T09:38:06.064Z,2524.00
2019-05-02T09:39:58.898Z,2956.00
2019-05-02T09:40:58.793Z,2640.00
2019-05-02T09:42:53.278Z,2688.00
2019-05-02T09:43:52.353Z,2796.00
2019-05-02T09:45:44.365Z,3008.00
2019-05-02T09:46:47.530Z,2912.00
2019-05-02T09:48:37.021Z,2776.00
2019-05-02T09:49:36.971Z,3132.00
2019-05-02T09:51:29.759Z,3252.00
2019-05-02T09:52:34.047Z,3044.00
2019-05-02T09:54:23.074Z,2748.00
2019-05-02T09:55:22.671Z,2852.00
2019-05-02T09:57:15.179Z,3596.00
2019-05-02T09:58:21.057Z,3432.00
2019-05-02T10:00:07.893Z,3512.00
2019-05-02T10:01:07.814Z,3944.00
2019-05-02T10:03:02.570Z,3068.00
2019-05-02T10:04:02.352Z,3332.00
2019-05-02T10:05:53.460Z,3364.00
2019-05-02T10:06:53.388Z,3072.00
2019-05-02T10:08:46.718Z,2808.00
2019-05-02T10:09:46.115Z,2752.00
2019-05-02T10:11:38.881Z,2656.00
2019-05-02T10:12:38.812Z,2500.00
2019-05-02T10:14:33.008Z,2360.00
2019-05-02T10:15:32.762Z,2500.00
2019-05-02T10:17:24.326Z,2372.00
2019-05-02T10:18:28.884Z,2336.00
2019-05-02T10:20:17.166Z,2808.00
2019-05-02T10:21:17.355Z,2980.00
2019-05-02T10:23:11.983Z,2812.00
2019-05-02T10:24:09.777Z,2908.00
2019-05-02T10:26:02.960Z,3196.00
2019-05-02T10:27:07.011Z,3004.00
2019-05-02T10:28:55.361Z,2960.00
2019-05-02T10:29:57.188Z,2780.00
2019-05-02T10:31:48.248Z,3416.00
2019-05-02T10:32:54.701Z,3328.00
2019-05-02T10:34:42.257Z,3532.00
2019-05-02T10:35:43.215Z,3256.00
2019-05-02T10:37:38.181Z,2824.00
2019-05-02T10:38:33.643Z,2532.00
2019-05-02T10:40:26.441Z,2556.00
2019-05-02T10:41:26.362Z,2944.00
2019-05-02T10:43:19.112Z,2568.00
2019-05-02T10:44:19.082Z,2284.00
2019-05-02T10:46:12.553Z,2492.00
2019-05-02T10:47:12.805Z,2396.00
2019-05-02T10:49:04.609Z,2212.00
2019-05-02T10:50:04.588Z,2248.00
2019-05-02T10:51:57.344Z,2444.00
2019-05-02T10:52:57.262Z,2492.00
2019-05-02T10:54:50.067Z,2668.00
2019-05-02T10:55:52.212Z,3200.00
2019-05-02T10:57:42.798Z,3448.00
2019-05-02T10:58:42.728Z,3128.00
2019-05-02T11:00:35.545Z,2892.00
2019-05-02T11:01:35.438Z,2656.00
2019-05-02T11:03:28.256Z,3028.00
2019-05-02T11:04:29.407Z,2584.00
2019-05-02T11:06:22.288Z,2408.00
2019-05-02T11:07:22.609Z,2856.00
2019-05-02T11:09:16.696Z,2864.00
2019-05-02T11:10:13.733Z,2664.00
2019-05-02T11:12:06.578Z,2732.00
2019-05-02T11:13:06.430Z,2380.00
2019-05-02T11:14:59.253Z,2384.00
2019-05-02T11:15:59.147Z,2424.00
2019-05-02T11:17:52.952Z,2356.00
2019-05-02T11:18:52.583Z,2540.00
2019-05-02T11:20:44.778Z,4352.00
2019-05-02T11:21:55.557Z,4916.00
2019-05-02T11:23:37.552Z,4488.00
2019-05-02T11:24:37.386Z,4204.00
2019-05-02T11:26:32.230Z,4400.00
2019-05-02T11:27:30.088Z,4668.00
2019-05-02T11:29:22.992Z,3708.00
2019-05-02T11:30:26.473Z,3656.00
2019-05-02T11:32:15.990Z,3040.00
2019-05-02T11:33:15.880Z,2928.00
2019-05-02T11:35:08.664Z,2464.00
2019-05-02T11:36:08.600Z,2616.00
2019-05-02T11:38:02.478Z,2300.00
2019-05-02T11:39:10.060Z,2428.00
2019-05-02T11:40:54.111Z,2800.00
2019-05-02T11:41:54.098Z,3528.00
2019-05-02T11:43:46.845Z,4280.00
2019-05-02T11:44:46.749Z,4424.00
2019-05-02T11:46:42.952Z,4512.00
2019-05-02T11:47:39.500Z,4636.00
2019-05-02T11:49:32.317Z,4464.00
2019-05-02T11:50:35.431Z,4436.00
2019-05-02T11:52:27.527Z,4104.00
2019-05-02T11:53:29.168Z,3800.00
2019-05-02T11:55:19.029Z,3368.00
2019-05-02T11:56:17.669Z,3060.00
2019-05-02T11:58:12.439Z,3136.00
2019-05-02T11:59:14.669Z,3600.00
2019-05-02T12:01:05.401Z,3920.00
2019-05-02T12:02:03.092Z,3756.00
2019-05-02T12:03:55.903Z,3888.00
2019-05-02T12:04:55.815Z,4052.00
2019-05-02T12:06:50.064Z,3080.00
2019-05-02T12:07:48.531Z,3140.00
2019-05-02T12:09:44.070Z,2636.00
2019-05-02T12:10:42.226Z,2484.00
2019-05-02T12:12:36.307Z,2736.00
2019-05-02T12:13:33.362Z,2784.00
2019-05-02T12:15:26.300Z,2392.00
2019-05-02T12:16:26.163Z,2604.00
2019-05-02T12:18:20.647Z,3192.00
2019-05-02T12:19:19.123Z,3984.00
2019-05-02T12:21:11.947Z,3660.00
2019-05-02T12:22:16.165Z,3132.00
2019-05-02T12:24:04.446Z,3148.00
2019-05-02T12:25:04.349Z,2752.00
2019-05-02T12:26:57.178Z,3028.00
2019-05-02T12:27:57.090Z,2692.00
2019-05-02T12:29:57.522Z,2768.00
2019-05-02T12:30:51.718Z,2620.00
2019-05-02T12:32:42.863Z,3328.00
2019-05-02T12:33:42.758Z,2896.00
2019-05-02T12:35:35.624Z,2984.00
2019-05-02T12:36:35.491Z,3032.00
2019-05-02T12:38:28.347Z,3580.00
2019-05-02T12:39:28.256Z,4064.00
2019-05-02T12:41:24.547Z,3828.00
2019-05-02T12:42:23.564Z,3700.00
2019-05-02T12:44:13.823Z,3440.00
2019-05-02T12:45:13.706Z,2852.00
2019-05-02T12:47:06.551Z,2904.00
2019-05-02T12:48:06.544Z,2704.00
2019-05-02T12:49:59.303Z,2520.00
2019-05-02T12:50:59.236Z,2556.00
2019-05-02T12:52:53.096Z,3168.00
2019-05-02T12:53:52.901Z,3320.00
2019-05-02T12:55:44.921Z,3392.00
2019-05-02T12:56:45.087Z,3208.00
2019-05-02T12:58:37.565Z,2960.00
2019-05-02T12:59:37.480Z,2688.00
2019-05-02T13:01:30.263Z,2996.00
2019-05-02T13:02:32.029Z,2752.00
2019-05-02T13:04:23.094Z,2428.00
2019-05-02T13:05:22.899Z,2572.00
2019-05-02T13:07:15.670Z,2876.00
2019-05-02T13:08:15.653Z,3104.00
2019-05-02T13:10:08.414Z,3460.00
2019-05-02T13:11:08.345Z,3432.00
2019-05-02T13:13:02.816Z,3808.00
2019-05-02T13:14:02.215Z,3704.00
2019-05-02T13:15:53.957Z,3428.00
2019-05-02T13:17:01.612Z,3032.00
2019-05-02T13:18:46.623Z,3108.00
2019-05-02T13:19:55.552Z,2896.00
2019-05-02T13:21:42.355Z,3056.00
2019-05-02T13:22:39.274Z,2328.00
2019-05-02T13:24:32.620Z,2496.00
2019-05-02T13:25:36.631Z,2656.00
2019-05-02T13:27:24.953Z,2760.00
2019-05-02T13:28:25.719Z,2664.00
2019-05-02T13:30:18.694Z,2608.00
2019-05-02T13:31:18.491Z,2532.00
2019-05-02T13:33:12.212Z,2520.00
2019-05-02T13:34:14.618Z,2620.00
2019-05-02T13:36:04.031Z,2848.00
2019-05-02T13:37:03.987Z,2448.00
2019-05-02T13:38:56.754Z,2744.00
2019-05-02T13:39:56.673Z,3020.00
2019-05-02T13:41:49.553Z,3384.00
2019-05-02T13:42:49.473Z,3408.00
2019-05-02T13:44:42.639Z,3488.00
2019-05-02T13:45:42.313Z,3844.00
2019-05-02T13:47:35.167Z,4176.00
2019-05-02T13:48:35.047Z,3864.00
2019-05-02T13:50:27.891Z,4148.00
2019-05-02T13:51:27.836Z,4320.00
2019-05-02T13:53:22.567Z,3680.00
2019-05-02T13:54:22.107Z,3452.00
2019-05-02T13:56:13.415Z,3668.00
2019-05-02T13:57:13.336Z,3820.00
2019-05-02T13:59:06.122Z,4032.00
2019-05-02T14:00:06.045Z,4168.00
2019-05-02T14:01:58.851Z,3932.00
2019-05-02T14:02:58.859Z,4020.00
2019-05-02T14:04:52.185Z,3364.00
2019-05-02T14:05:53.810Z,3460.00
2019-05-02T14:07:48.241Z,3528.00
2019-05-02T14:08:44.220Z,3540.00
2019-05-02T14:10:39.366Z,3416.00
2019-05-02T14:11:36.944Z,3392.00
2019-05-02T14:13:31.509Z,2916.00
2019-05-02T14:14:29.691Z,2620.00
2019-05-02T14:16:22.487Z,2780.00
2019-05-02T14:17:22.949Z,2468.00
2019-05-02T14:19:15.243Z,2652.00
2019-05-02T14:20:15.105Z,2932.00
2019-05-02T14:22:07.895Z,2124.00
2019-05-02T14:23:07.856Z,1904.00
2019-05-02T14:25:01.912Z,2252.00
2019-05-02T14:26:01.990Z,2472.00
2019-05-02T14:27:55.629Z,2484.00
2019-05-02T14:28:53.381Z,2024.00
2019-05-02T14:30:46.515Z,2000.00
2019-05-02T14:31:45.983Z,2284.00
2019-05-02T14:33:38.737Z,2164.00
2019-05-02T14:34:38.678Z,2404.00
2019-05-02T14:36:32.556Z,2556.00
2019-05-02T14:37:32.184Z,3100.00
2019-05-02T14:39:24.203Z,3388.00
2019-05-02T14:40:24.158Z,3500.00
2019-05-02T14:42:22.139Z,3576.00
2019-05-02T14:43:16.909Z,3396.00
2019-05-02T14:45:24.194Z,3656.00
2019-05-02T14:46:09.622Z,3524.00
2019-05-02T14:48:17.958Z,3248.00
2019-05-02T14:49:02.819Z,3100.00
2019-05-02T14:50:55.201Z,3208.00
2019-05-02T14:51:57.207Z,3040.00
2019-05-02T14:53:48.089Z,2048.00
2019-05-02T14:54:48.190Z,1580.00
2019-05-02T14:56:43.503Z,1440.00
2019-05-02T14:57:42.741Z,1384.00
2019-05-02T14:59:33.309Z,1436.00
2019-05-02T15:00:39.608Z,1296.00
2019-05-02T15:02:28.867Z,1340.00
2019-05-02T15:03:28.419Z,1296.00
2019-05-02T15:05:24.199Z,920.00
2019-05-02T15:06:18.893Z,1176.00
2019-05-02T15:08:12.070Z,1604.00
2019-05-02T15:09:12.126Z,1588.00
2019-05-02T15:11:04.647Z,1324.00
2019-05-02T15:12:14.126Z,1380.00
2019-05-02T15:13:57.335Z,1428.00
2019-05-02T15:14:58.776Z,1552.00
2019-05-02T15:16:56.524Z,2256.00
2019-05-02T15:17:49.961Z,3016.00
2019-05-02T15:19:42.825Z,3372.00
2019-05-02T15:20:42.938Z,3156.00
2019-05-02T15:22:37.432Z,2204.00
2019-05-02T15:23:35.384Z,1980.00
2019-05-02T15:25:28.258Z,2000.00
2019-05-02T15:26:31.327Z,2044.00
2019-05-02T15:28:22.890Z,2000.00
2019-05-02T15:29:25.092Z,1748.00
2019-05-02T15:31:13.729Z,1128.00
2019-05-02T15:32:13.662Z,936.00
2019-05-02T15:34:06.454Z,788.00
2019-05-02T15:35:06.372Z,732.00
2019-05-02T15:36:59.628Z,780.00
2019-05-02T15:38:02.529Z,888.00
2019-05-02T15:40:53.754Z,1056.00
2019-05-02T15:42:45.157Z,1052.00
2019-05-02T15:43:49.076Z,1008.00
2019-05-02T15:45:43.509Z,828.00
2019-05-02T15:46:40.112Z,804.00
2019-05-02T15:48:32.310Z,868.00
2019-05-02T15:49:32.148Z,868.00
2019-05-02T15:51:23.275Z,1016.00
2019-05-02T15:52:24.214Z,980.00
2019-05-02T15:54:18.900Z,944.00
2019-05-02T15:55:15.942Z,980.00
2019-05-02T15:57:08.732Z,1068.00
2019-05-02T15:58:08.703Z,992.00
2019-05-02T16:00:01.695Z,892.00
2019-05-02T16:01:04.798Z,860.00
2019-05-02T16:02:56.211Z,856.00
2019-05-02T16:03:54.137Z,892.00
2019-05-02T16:05:46.969Z,916.00
2019-05-02T16:06:46.860Z,916.00
2019-05-02T16:08:39.775Z,812.00
2019-05-02T16:09:41.515Z,772.00
2019-05-02T16:11:32.416Z,908.00
2019-05-02T16:12:35.952Z,964.00
2019-05-02T16:14:27.122Z,1048.00
2019-05-02T16:15:26.449Z,1056.00
2019-05-02T16:17:22.183Z,964.00
2019-05-02T16:18:17.986Z,848.00
2019-05-02T16:20:13.205Z,700.00
2019-05-02T16:21:11.927Z,652.00
2019-05-02T16:23:03.422Z,532.00
2019-05-02T16:24:10.909Z,524.00
2019-05-02T16:25:56.898Z,432.00
2019-05-02T16:26:57.211Z,360.00
2019-05-02T16:28:48.830Z,300.00
2019-05-02T16:29:48.771Z,276.00
2019-05-02T16:31:42.419Z,216.00
2019-05-02T16:32:42.125Z,204.00
2019-05-02T16:34:35.390Z,260.00
2019-05-02T16:35:34.217Z,256.00
2019-05-02T16:37:27.001Z,180.00
2019-05-02T16:38:31.381Z,168.00
2019-05-02T16:40:22.162Z,236.00
2019-05-02T16:41:21.708Z,276.00
2019-05-02T16:43:12.636Z,292.00
2019-05-02T16:44:12.736Z,312.00
2019-05-02T16:46:06.694Z,376.00
2019-05-02T16:47:05.277Z,360.00
2019-05-02T16:48:58.080Z,300.00
2019-05-02T16:49:57.987Z,280.00
2019-05-02T16:51:52.857Z,216.00
2019-05-02T16:52:52.872Z,216.00
2019-05-02T16:54:43.816Z,216.00
2019-05-02T16:55:43.720Z,196.00
2019-05-02T16:57:36.253Z,168.00
2019-05-02T16:58:38.071Z,172.00
2019-05-02T17:00:29.151Z,180.00
2019-05-02T17:01:28.973Z,180.00
2019-05-02T17:03:25.085Z,196.00
2019-05-02T17:04:22.360Z,184.00
2019-05-02T17:06:16.908Z,220.00
2019-05-02T17:07:16.724Z,260.00
2019-05-02T17:09:07.319Z,340.00
2019-05-02T17:10:08.497Z,344.00
2019-05-02T17:12:01.883Z,340.00
2019-05-02T17:13:00.936Z,324.00
2019-05-02T17:14:54.854Z,320.00
2019-05-02T17:15:52.770Z,364.00
2019-05-02T17:17:45.581Z,444.00
2019-05-02T17:18:48.254Z,500.00
2019-05-02T17:20:38.321Z,556.00
2019-05-02T17:21:52.294Z,540.00
2019-05-02T17:23:32.833Z,456.00
2019-05-02T17:24:32.283Z,416.00
2019-05-02T17:26:23.758Z,396.00
2019-05-02T17:27:24.678Z,304.00
2019-05-02T17:29:21.252Z,396.00
2019-05-02T17:30:16.477Z,384.00
2019-05-02T17:32:09.212Z,348.00
2019-05-02T17:33:12.767Z,316.00
2019-05-02T17:35:09.234Z,268.00
2019-05-02T17:36:02.223Z,284.00
2019-05-02T17:37:54.702Z,296.00
2019-05-02T17:38:54.667Z,280.00
2019-05-02T17:40:47.514Z,236.00
2019-05-02T17:41:47.393Z,224.00
2019-05-02T17:43:42.257Z,264.00
2019-05-02T17:44:41.527Z,284.00
2019-05-02T17:46:32.971Z,216.00
2019-05-02T17:47:36.214Z,176.00
2019-05-02T17:49:34.863Z,176.00
2019-05-02T17:50:25.708Z,168.00
2019-05-02T17:52:23.951Z,164.00
2019-05-02T17:53:18.336Z,148.00
2019-05-02T17:55:12.098Z,136.00